Time;durP1;ratioP1;P1;durP2;ratioP2;P2;SDS_P1;SDS_P2;PMS_P1;PMS_P2;Temp;Humidity;BMP_temperature;BMP_pressure;BME280_temperature;BME280_humidity;BME280_pressure;Samples;Min_cycle;Max_cycle;Signal;HPM_P1;HPM_P2
2023/05/27 00:01:25;;;;;;;16.50;4.32;;;;;;;16.43;43.92;102813.50;6192034;23;20025;-63
2023/05/27 00:03:53;;;;;;;16.95;5.13;;;;;;;16.39;44.11;102807.66;6191401;23;20024;-63
2023/05/27 00:06:21;;;;;;;14.95;3.50;;;;;;;16.37;44.14;102809.75;6191194;23;20025;-61
2023/05/27 00:08:49;;;;;;;15.73;4.32;;;;;;;16.35;44.14;102806.41;6193809;23;20119;-63
2023/05/27 00:11:16;;;;;;;11.00;3.60;;;;;;;16.33;43.92;102813.94;6191952;23;20029;-62
2023/05/27 00:13:45;;;;;;;14.93;3.85;;;;;;;16.32;44.03;102814.16;6193547;23;20036;-63
2023/05/27 00:16:12;;;;;;;11.90;3.63;;;;;;;16.29;43.99;102807.28;6192271;23;20095;-62
2023/05/27 00:18:41;;;;;;;13.32;3.78;;;;;;;16.28;44.10;102806.44;6193483;23;20049;-62
2023/05/27 00:21:09;;;;;;;11.85;3.70;;;;;;;16.26;44.08;102796.84;6192197;23;20032;-63
2023/05/27 00:23:37;;;;;;;13.77;3.20;;;;;;;16.24;44.23;102809.78;6193178;23;20044;-62
2023/05/27 00:26:05;;;;;;;11.23;3.10;;;;;;;16.21;44.29;102805.63;6190752;23;20087;-62
2023/05/27 00:28:33;;;;;;;16.88;4.10;;;;;;;16.20;44.25;102806.66;6192093;23;20032;-63
2023/05/27 00:31:00;;;;;;;13.05;3.38;;;;;;;16.19;44.22;102798.72;6191113;23;20033;-63
2023/05/27 00:33:28;;;;;;;15.93;4.60;;;;;;;16.16;44.25;102800.00;6191677;23;20029;-63
2023/05/27 00:35:58;;;;;;;15.05;4.22;;;;;;;16.15;44.18;102801.03;6189025;23;20518;-64
2023/05/27 00:38:25;;;;;;;11.35;3.88;;;;;;;16.12;43.99;102793.31;6189488;23;20104;-63
2023/05/27 00:40:54;;;;;;;10.68;3.65;;;;;;;16.12;44.25;102809.59;6187918;23;20029;-63
2023/05/27 00:43:22;;;;;;;15.57;4.32;;;;;;;16.10;44.14;102806.25;6190769;23;20189;-63
2023/05/27 00:45:50;;;;;;;11.35;4.55;;;;;;;16.09;44.26;102810.00;6189008;23;20025;-63
2023/05/27 00:48:18;;;;;;;12.68;3.38;;;;;;;16.07;44.20;102801.25;6189363;23;20115;-63
2023/05/27 00:50:46;;;;;;;10.82;3.40;;;;;;;16.08;44.09;102796.66;6191206;23;20028;-63
2023/05/27 00:53:16;;;;;;;12.35;3.97;;;;;;;16.06;44.32;102805.00;6192527;23;20565;-63
2023/05/27 00:55:44;;;;;;;15.27;4.22;;;;;;;16.04;44.29;102803.56;6191055;23;20028;-63
2023/05/27 00:58:12;;;;;;;11.15;2.92;;;;;;;16.02;44.30;102806.47;6192498;23;20331;-63
2023/05/27 01:00:40;;;;;;;10.30;3.20;;;;;;;16.00;44.33;102803.13;6190556;23;20097;-62
2023/05/27 01:03:08;;;;;;;11.55;3.35;;;;;;;16.00;44.30;102794.16;6192762;23;20025;-63
2023/05/27 01:05:36;;;;;;;13.32;4.57;;;;;;;15.97;44.54;102798.13;6192542;23;20036;-63
2023/05/27 01:08:13;;;;;;;14.38;3.92;;;;;;;15.97;44.14;102794.59;6192332;23;20052;-63
2023/05/27 01:10:48;;;;;;;11.75;4.55;;;;;;;15.94;44.40;102791.25;6190478;23;20429;-62
2023/05/27 01:13:23;;;;;;;8.77;3.33;;;;;;;15.92;44.23;102790.63;6191562;23;20056;-63
2023/05/27 01:15:54;;;;;;;12.43;3.53;;;;;;;15.91;44.31;102790.84;6191210;23;20029;-63
2023/05/27 01:18:24;;;;;;;15.88;3.47;;;;;;;15.90;44.26;102789.16;6191530;23;20025;-63
2023/05/27 01:20:55;;;;;;;9.02;3.30;;;;;;;15.87;44.33;102784.16;6191969;23;20021;-63
2023/05/27 01:23:24;;;;;;;14.18;3.25;;;;;;;15.87;44.51;102786.88;6192755;23;20021;-63
2023/05/27 01:25:52;;;;;;;15.15;3.85;;;;;;;15.83;44.51;102786.47;6190772;23;20538;-63
2023/05/27 01:28:20;;;;;;;11.35;3.22;;;;;;;15.83;44.53;102778.31;6190776;23;20040;-62
2023/05/27 01:30:49;;;;;;;16.40;3.88;;;;;;;15.80;44.67;102780.63;6190710;23;20052;-63
2023/05/27 01:33:21;;;;;;;12.30;4.25;;;;;;;15.79;44.79;102773.53;6191187;23;20029;-62
2023/05/27 01:35:53;;;;;;;10.10;3.17;;;;;;;15.77;44.53;102776.47;6192704;23;20021;-63
2023/05/27 01:38:25;;;;;;;14.43;3.75;;;;;;;15.76;44.70;102776.66;6191721;23;20052;-62
2023/05/27 01:40:54;;;;;;;11.25;4.03;;;;;;;15.74;44.81;102773.31;6191424;23;20036;-62
2023/05/27 01:43:23;;;;;;;10.80;3.60;;;;;;;15.72;44.76;102778.97;6192501;23;20025;-63
2023/05/27 01:45:52;;;;;;;9.05;3.15;;;;;;;15.70;44.68;102769.38;6191807;23;20052;-63
2023/05/27 01:48:20;;;;;;;11.10;3.97;;;;;;;15.69;44.89;102764.97;6192862;23;20031;-63
2023/05/27 01:50:48;;;;;;;12.38;3.92;;;;;;;15.67;44.79;102769.78;6192386;23;20035;-63
2023/05/27 01:53:16;;;;;;;12.73;3.85;;;;;;;15.65;44.85;102770.00;6192830;23;20047;-63
2023/05/27 01:55:45;;;;;;;11.38;4.30;;;;;;;15.63;44.74;102763.94;6191162;23;20025;-63
2023/05/27 01:58:13;;;;;;;14.02;4.00;;;;;;;15.62;44.68;102764.97;6192844;23;20087;-62
2023/05/27 02:00:41;;;;;;;13.60;3.67;;;;;;;15.59;45.10;102752.72;6191913;23;20029;-62
2023/05/27 02:03:09;;;;;;;10.93;3.60;;;;;;;15.58;44.85;102758.34;6192418;23;20028;-62
2023/05/27 02:05:37;;;;;;;11.10;3.22;;;;;;;15.56;44.90;102763.09;6190497;23;20120;-62
2023/05/27 02:08:05;;;;;;;12.27;4.35;;;;;;;15.52;44.90;102759.97;6192194;23;20433;-62
2023/05/27 02:10:33;;;;;;;10.65;3.60;;;;;;;15.51;45.05;102761.03;6189967;23;20037;-61
2023/05/27 02:13:02;;;;;;;14.27;4.15;;;;;;;15.49;45.15;102759.56;6192575;23;20025;-62
2023/05/27 02:15:31;;;;;;;14.00;3.58;;;;;;;15.47;45.02;102762.47;6191781;23;20387;-63
2023/05/27 02:17:58;;;;;;;15.98;4.20;;;;;;;15.44;45.12;102765.59;6192714;23;20043;-62
2023/05/27 02:20:26;;;;;;;14.50;3.60;;;;;;;15.42;45.40;102754.13;6190103;23;20039;-58
2023/05/27 02:22:54;;;;;;;14.20;4.13;;;;;;;15.42;45.16;102758.72;6190484;23;20029;-63
2023/05/27 02:25:22;;;;;;;16.27;4.53;;;;;;;15.39;45.43;102759.97;6188774;23;20056;-63
2023/05/27 02:27:52;;;;;;;11.95;2.95;;;;;;;15.39;45.45;102765.41;6190673;23;20052;-63
2023/05/27 02:30:21;;;;;;;16.70;4.00;;;;;;;15.38;45.36;102761.00;6191074;23;20076;-63
2023/05/27 02:32:50;;;;;;;11.25;3.13;;;;;;;15.37;45.51;102763.94;6192162;23;20064;-63
2023/05/27 02:35:18;;;;;;;14.55;3.70;;;;;;;15.34;45.18;102762.47;6192008;23;20028;-62
2023/05/27 02:37:46;;;;;;;12.30;3.40;;;;;;;15.32;45.41;102767.25;6191244;23;20029;-62
2023/05/27 02:40:24;;;;;;;11.18;3.33;;;;;;;15.30;45.63;102770.19;6191023;23;20072;-62
2023/05/27 02:42:52;;;;;;;10.50;3.88;;;;;;;15.29;45.66;102768.50;6190754;23;20048;-63
2023/05/27 02:45:21;;;;;;;9.80;3.63;;;;;;;15.28;45.33;102761.41;6189325;23;20079;-62
2023/05/27 02:47:49;;;;;;;10.23;3.28;;;;;;;15.27;45.33;102758.91;6190569;23;20029;-63
2023/05/27 02:50:17;;;;;;;11.38;3.88;;;;;;;15.25;45.48;102761.81;6189867;23;20024;-63
2023/05/27 02:52:45;;;;;;;13.88;4.35;;;;;;;15.24;45.52;102767.44;6190937;23;20032;-63
2023/05/27 02:55:13;;;;;;;12.35;3.55;;;;;;;15.24;45.69;102775.59;6188521;23;20132;-63
2023/05/27 02:57:41;;;;;;;13.68;3.80;;;;;;;15.22;45.58;102772.25;6189394;23;20055;-63
2023/05/27 03:00:12;;;;;;;12.00;4.50;;;;;;;15.20;45.50;102777.88;6189750;23;20029;-62
2023/05/27 03:02:41;;;;;;;11.23;4.30;;;;;;;15.18;45.64;102773.69;6190242;23;20091;-62
2023/05/27 03:05:09;;;;;;;14.20;3.58;;;;;;;15.18;45.60;102781.81;6190148;23;20031;-64
2023/05/27 03:07:37;;;;;;;10.52;3.40;;;;;;;15.16;45.69;102773.06;6189459;23;20028;-61
2023/05/27 03:10:06;;;;;;;11.50;3.95;;;;;;;15.12;45.96;102779.94;6188992;23;20025;-62
2023/05/27 03:12:34;;;;;;;10.18;3.08;;;;;;;15.09;46.05;102773.03;6190592;23;20029;-62
2023/05/27 03:15:02;;;;;;;13.55;3.80;;;;;;;15.07;46.18;102771.59;6189518;23;20090;-63
2023/05/27 03:17:30;;;;;;;10.35;3.70;;;;;;;15.04;46.12;102775.53;6190209;23;20033;-60
2023/05/27 03:19:59;;;;;;;11.57;3.30;;;;;;;15.04;45.84;102775.53;6190585;23;20633;-63
2023/05/27 03:22:27;;;;;;;11.25;4.35;;;;;;;15.02;46.29;102780.31;6191886;23;20029;-61
2023/05/27 03:24:54;;;;;;;14.27;4.10;;;;;;;15.00;45.96;102773.44;6191163;23;20048;-62
2023/05/27 03:27:22;;;;;;;14.27;3.75;;;;;;;15.00;46.20;102776.16;6190936;23;20044;-63
2023/05/27 03:29:50;;;;;;;11.50;4.00;;;;;;;14.96;46.22;102773.84;6190687;23;20052;-63
2023/05/27 03:32:18;;;;;;;13.68;3.25;;;;;;;14.94;46.30;102766.97;6191242;23;20463;-63
2023/05/27 03:34:46;;;;;;;18.13;4.03;;;;;;;14.92;46.27;102771.75;6192276;23;20033;-63
2023/05/27 03:37:15;;;;;;;10.05;4.03;;;;;;;14.90;46.13;102763.00;6193440;23;20051;-63
2023/05/27 03:39:43;;;;;;;13.98;3.88;;;;;;;14.87;46.21;102764.25;6191883;23;20029;-63
2023/05/27 03:42:11;;;;;;;11.93;3.88;;;;;;;14.86;46.47;102759.88;6191664;23;20056;-62
2023/05/27 03:44:38;;;;;;;13.75;4.85;;;;;;;14.85;46.55;102754.66;6192893;23;20037;-63
2023/05/27 03:47:07;;;;;;;11.07;3.75;;;;;;;14.85;46.31;102760.06;6192396;23;20084;-62
2023/05/27 03:49:34;;;;;;;14.85;3.50;;;;;;;14.83;46.54;102746.72;6192825;23;20075;-62
2023/05/27 03:52:03;;;;;;;14.32;3.97;;;;;;;14.74;46.57;102736.28;6192904;23;20021;-62
2023/05/27 03:54:32;;;;;;;15.18;3.80;;;;;;;14.80;46.67;102757.13;6192217;23;20029;-63
2023/05/27 03:56:59;;;;;;;13.93;4.35;;;;;;;14.79;46.67;102750.06;6189277;23;20025;-63
2023/05/27 03:59:27;;;;;;;8.65;3.47;;;;;;;14.79;46.65;102755.47;6191556;23;20029;-61
2023/05/27 04:01:55;;;;;;;11.93;4.43;;;;;;;14.76;46.47;102753.16;6190583;23;20052;-63
2023/05/27 04:04:23;;;;;;;18.92;3.72;;;;;;;14.75;46.51;102752.34;6191383;23;20035;-61
2023/05/27 04:06:51;;;;;;;16.30;4.63;;;;;;;14.74;46.42;102750.66;6190993;23;20055;-63
2023/05/27 04:09:18;;;;;;;9.60;3.33;;;;;;;14.73;46.74;102742.75;6192737;23;20036;-61
2023/05/27 04:11:48;;;;;;;11.18;3.55;;;;;;;14.73;46.49;102745.44;6190115;23;20032;-63
2023/05/27 04:14:15;;;;;;;12.73;3.58;;;;;;;14.71;46.72;102742.94;6195210;23;20025;-63
2023/05/27 04:16:43;;;;;;;10.13;3.10;;;;;;;14.71;46.58;102742.09;6194392;23;20317;-62
2023/05/27 04:19:11;;;;;;;13.40;3.10;;;;;;;14.68;46.73;102745.22;6195014;23;20108;-63
2023/05/27 04:21:39;;;;;;;17.40;4.75;;;;;;;14.68;46.73;102737.94;6192662;23;20032;-63
2023/05/27 04:24:07;;;;;;;11.38;3.40;;;;;;;14.67;47.21;102738.13;6195045;23;20029;-61
2023/05/27 04:26:35;;;;;;;14.27;3.88;;;;;;;14.65;47.09;102744.59;6192864;23;20021;-63
2023/05/27 04:29:04;;;;;;;13.90;3.58;;;;;;;14.63;46.74;102743.97;6187848;23;20024;-60
2023/05/27 04:31:32;;;;;;;12.60;3.30;;;;;;;14.63;46.98;102746.66;6187641;23;20029;-62
2023/05/27 04:33:59;;;;;;;12.80;4.28;;;;;;;14.63;46.85;102740.41;6188219;23;20056;-62
2023/05/27 04:36:33;;;;;;;12.15;3.55;;;;;;;14.57;47.28;102728.53;6188115;23;20033;-60
2023/05/27 04:39:02;;;;;;;11.10;3.90;;;;;;;14.61;46.94;102742.50;6188478;23;20029;-63
2023/05/27 04:41:32;;;;;;;14.20;4.35;;;;;;;14.58;47.48;102734.78;6186557;23;20065;-62
2023/05/27 04:44:00;;;;;;;14.50;4.03;;;;;;;14.58;47.02;102732.06;6188372;23;20036;-62
2023/05/27 04:46:30;;;;;;;12.65;4.05;;;;;;;14.56;47.03;102731.44;6186791;23;20131;-62
2023/05/27 04:48:58;;;;;;;10.65;3.63;;;;;;;14.55;47.54;102721.66;6187862;23;20288;-63
2023/05/27 04:51:25;;;;;;;9.80;3.38;;;;;;;14.54;47.44;102719.97;6187110;23;20025;-63
2023/05/27 04:53:54;;;;;;;11.48;4.75;;;;;;;14.53;47.66;102718.31;6188848;23;20025;-62
2023/05/27 04:56:21;;;;;;;13.75;3.67;;;;;;;14.52;47.18;102724.75;6187267;23;20031;-63
2023/05/27 04:58:50;;;;;;;12.27;3.78;;;;;;;14.50;47.26;102722.25;6188472;23;20029;-62
2023/05/27 05:01:20;;;;;;;11.70;3.67;;;;;;;14.52;47.54;102716.66;6185935;23;20036;-60
2023/05/27 05:04:02;;;;;;;12.85;3.33;;;;;;;14.51;46.99;102717.69;6186963;23;20601;-61
2023/05/27 05:06:31;;;;;;;12.25;3.90;;;;;;;14.51;47.49;102717.69;6186212;23;20107;-61
2023/05/27 05:08:59;;;;;;;13.50;4.13;;;;;;;14.51;47.43;102707.69;6186904;23;20045;-62
2023/05/27 05:11:27;;;;;;;12.80;5.00;;;;;;;14.51;47.65;102712.28;6186140;23;20025;-63
2023/05/27 05:13:55;;;;;;;11.45;3.88;;;;;;;14.51;47.39;102714.97;6187339;23;20032;-63
2023/05/27 05:16:22;;;;;;;14.38;3.92;;;;;;;14.54;47.45;102711.88;6186348;23;20032;-62
2023/05/27 05:18:52;;;;;;;10.38;3.47;;;;;;;14.53;47.20;102711.03;6187773;23;20036;-62
2023/05/27 05:21:19;;;;;;;12.70;3.60;;;;;;;14.52;47.11;102709.38;6186332;23;20387;-63
2023/05/27 05:23:47;;;;;;;11.95;3.45;;;;;;;14.54;47.32;102714.56;6187622;23;20029;-63
2023/05/27 05:26:15;;;;;;;12.43;4.10;;;;;;;14.53;47.25;102713.75;6185644;23;20024;-63
2023/05/27 05:28:43;;;;;;;9.93;2.97;;;;;;;14.54;47.32;102717.28;6185651;23;20029;-63
2023/05/27 05:31:11;;;;;;;15.38;3.50;;;;;;;14.55;47.49;102708.13;6186511;23;20052;-62
2023/05/27 05:33:38;;;;;;;10.68;3.10;;;;;;;14.55;47.21;102706.25;6186717;23;20450;-63
2023/05/27 05:36:08;;;;;;;15.23;3.67;;;;;;;14.56;47.06;102705.22;6183845;23;20055;-62
2023/05/27 05:38:36;;;;;;;12.60;3.17;;;;;;;14.56;47.37;102701.69;6185572;23;20025;-62
2023/05/27 05:41:05;;;;;;;9.35;4.63;;;;;;;14.53;47.70;102702.91;6185283;23;20064;-62
2023/05/27 05:43:32;;;;;;;10.98;4.25;;;;;;;14.58;47.66;102710.44;6186398;23;20423;-63
2023/05/27 05:46:01;;;;;;;14.73;4.13;;;;;;;14.59;47.41;102702.09;6186347;23;21386;-59
2023/05/27 05:48:29;;;;;;;19.90;5.10;;;;;;;14.61;48.02;102693.78;6187778;23;20049;-63
2023/05/27 05:50:57;;;;;;;11.40;3.67;;;;;;;14.62;47.95;102698.16;6186847;23;20455;-58
2023/05/27 05:53:28;;;;;;;12.40;2.90;;;;;;;14.65;47.69;102695.88;6187132;23;20554;-64
2023/05/27 05:55:56;;;;;;;9.93;3.50;;;;;;;14.66;47.57;102688.59;6185097;23;20033;-63
2023/05/27 05:58:23;;;;;;;14.13;4.13;;;;;;;14.69;47.58;102692.75;6186999;23;20108;-60
2023/05/27 06:00:51;;;;;;;10.95;3.75;;;;;;;14.69;47.64;102699.00;6185157;23;20374;-62
2023/05/27 06:03:20;;;;;;;14.45;3.70;;;;;;;14.71;48.13;102693.41;6186180;23;20029;-63
2023/05/27 06:05:48;;;;;;;13.32;3.70;;;;;;;14.73;48.13;102691.31;6186544;23;20036;-64
2023/05/27 06:08:15;;;;;;;16.13;4.47;;;;;;;14.73;48.02;102705.69;6185653;23;20400;-63
2023/05/27 06:10:45;;;;;;;14.05;4.30;;;;;;;14.75;48.23;102706.31;6184840;23;20053;-63
2023/05/27 06:13:12;;;;;;;12.45;4.00;;;;;;;14.77;47.85;102698.81;6185657;23;20151;-62
2023/05/27 06:15:40;;;;;;;11.85;3.45;;;;;;;14.78;48.06;102697.78;6186024;23;20025;-64
2023/05/27 06:18:08;;;;;;;13.07;3.67;;;;;;;14.80;48.21;102686.75;6185247;23;20029;-62
2023/05/27 06:20:36;;;;;;;10.35;4.00;;;;;;;14.83;48.25;102689.06;6185823;23;20036;-64
2023/05/27 06:23:05;;;;;;;11.13;2.90;;;;;;;14.85;48.33;102686.97;6185383;23;20035;-62
2023/05/27 06:25:33;;;;;;;14.23;3.63;;;;;;;14.88;47.95;102678.44;6184518;23;20083;-64
2023/05/27 06:28:02;;;;;;;13.25;3.45;;;;;;;14.90;48.24;102681.78;6185421;23;20103;-64
2023/05/27 06:30:31;;;;;;;9.55;3.05;;;;;;;14.92;48.22;102685.94;6185628;23;20079;-65
2023/05/27 06:32:59;;;;;;;10.80;3.78;;;;;;;14.92;48.45;102682.41;6186904;23;21308;-65
2023/05/27 06:35:27;;;;;;;10.45;3.35;;;;;;;14.96;47.99;102683.66;6185929;23;20100;-65
2023/05/27 06:37:55;;;;;;;8.75;3.45;;;;;;;14.98;48.25;102679.72;6186563;23;20068;-65
2023/05/27 06:40:22;;;;;;;9.80;3.10;;;;;;;14.99;48.30;102669.72;6184115;23;20449;-65
2023/05/27 06:42:50;;;;;;;11.90;3.65;;;;;;;14.97;48.10;102664.50;6185003;23;20032;-63
2023/05/27 06:45:19;;;;;;;14.75;4.35;;;;;;;15.01;48.36;102672.22;6184643;23;20029;-64
2023/05/27 06:47:47;;;;;;;10.48;3.17;;;;;;;15.03;48.48;102676.38;6185075;23;20087;-64
2023/05/27 06:50:15;;;;;;;12.13;4.65;;;;;;;15.02;48.35;102672.00;6183572;23;20035;-62
2023/05/27 06:52:43;;;;;;;12.93;3.75;;;;;;;15.04;48.30;102669.09;6186227;23;20052;-65
2023/05/27 06:55:11;;;;;;;22.13;5.38;;;;;;;14.88;50.51;102668.44;6182636;23;20183;-61
2023/05/27 06:57:39;;;;;;;16.80;5.82;;;;;;;14.30;52.13;102672.63;6182373;23;20033;-59
2023/05/27 07:00:08;;;;;;;15.18;5.93;;;;;;;14.09;52.50;102667.31;6184593;23;20029;-62
2023/05/27 07:02:37;;;;;;;19.98;5.50;;;;;;;14.13;52.44;102671.28;6185141;23;20029;-63
2023/05/27 07:05:05;;;;;;;19.38;4.78;;;;;;;14.25;51.74;102666.97;6186569;23;20546;-62
2023/05/27 07:07:33;;;;;;;22.20;5.25;;;;;;;14.39;51.28;102671.41;6191016;23;20029;-63
2023/05/27 07:10:01;;;;;;;16.50;4.93;;;;;;;14.54;50.92;102669.41;6191214;23;20021;-60
2023/05/27 07:12:29;;;;;;;15.15;3.92;;;;;;;14.64;50.62;102675.25;6192348;23;20510;-62
2023/05/27 07:14:57;;;;;;;10.43;3.97;;;;;;;14.74;50.62;102668.63;6190585;23;20049;-62
2023/05/27 07:17:25;;;;;;;13.15;3.58;;;;;;;14.83;50.42;102670.94;6192495;23;21511;-63
2023/05/27 07:19:54;;;;;;;15.23;4.03;;;;;;;14.88;50.27;102663.03;6190789;23;20416;-62
2023/05/27 07:22:22;;;;;;;11.55;3.45;;;;;;;14.98;50.51;102660.75;6191255;23;20039;-60
2023/05/27 07:24:50;;;;;;;11.57;4.20;;;;;;;15.02;50.20;102658.47;6191153;23;20025;-62
2023/05/27 07:27:18;;;;;;;11.93;4.28;;;;;;;15.05;49.79;102659.94;6190125;23;20056;-63
2023/05/27 07:29:46;;;;;;;9.75;3.83;;;;;;;15.12;49.93;102660.78;6190231;23;20095;-63
2023/05/27 07:32:14;;;;;;;10.23;3.72;;;;;;;15.15;50.04;102657.66;6192079;23;20044;-63
2023/05/27 07:34:41;;;;;;;9.85;3.03;;;;;;;15.18;49.91;102652.66;6193570;23;20025;-63
2023/05/27 07:37:11;;;;;;;14.95;4.32;;;;;;;15.22;49.78;102655.78;6192880;23;20025;-62
2023/05/27 07:39:38;;;;;;;13.35;3.80;;;;;;;15.23;49.59;102657.44;6193519;23;20029;-62
2023/05/27 07:42:06;;;;;;;12.85;3.65;;;;;;;15.25;49.71;102653.47;6191697;23;20021;-62
2023/05/27 07:44:34;;;;;;;18.27;4.35;;;;;;;15.28;49.62;102653.06;6192758;23;20029;-61
2023/05/27 07:47:02;;;;;;;13.85;3.90;;;;;;;15.28;49.78;102647.63;6192611;23;20037;-63
2023/05/27 07:49:30;;;;;;;9.98;3.78;;;;;;;15.30;49.39;102642.84;6190801;23;20335;-62
2023/05/27 07:51:58;;;;;;;12.85;4.13;;;;;;;15.30;49.77;102645.56;6193479;23;20025;-62
2023/05/27 07:54:27;;;;;;;15.85;3.88;;;;;;;15.32;49.57;102631.81;6193508;23;20065;-63
2023/05/27 07:56:57;;;;;;;12.68;3.78;;;;;;;15.34;49.76;102632.44;6192007;23;20036;-62
2023/05/27 07:59:25;;;;;;;16.45;5.32;;;;;;;15.36;49.89;102629.50;6193654;23;20028;-63
2023/05/27 08:01:53;;;;;;;11.15;3.72;;;;;;;15.38;49.82;102636.38;6192248;23;20029;-63
2023/05/27 08:04:21;;;;;;;12.40;4.03;;;;;;;15.41;49.82;102629.72;6191855;23;20207;-61
2023/05/27 08:06:52;;;;;;;10.88;3.30;;;;;;;15.42;50.11;102632.22;6191092;23;20025;-66
2023/05/27 08:09:20;;;;;;;9.80;3.35;;;;;;;15.44;49.85;102624.69;6191377;23;20037;-62
2023/05/27 08:11:49;;;;;;;13.07;4.38;;;;;;;15.46;49.88;102619.06;6189366;23;20025;-62
2023/05/27 08:14:17;;;;;;;11.45;3.53;;;;;;;15.48;49.89;102622.41;6191812;23;20040;-63
2023/05/27 08:16:45;;;;;;;12.48;4.18;;;;;;;15.48;49.88;102612.41;6191239;23;20129;-61
2023/05/27 08:19:13;;;;;;;10.35;3.30;;;;;;;15.49;49.98;102607.81;6193970;23;20063;-60
2023/05/27 08:21:40;;;;;;;13.27;4.07;;;;;;;15.52;50.15;102602.81;6191900;23;20648;-62
2023/05/27 08:24:08;;;;;;;10.80;3.70;;;;;;;15.55;50.09;102598.84;6190107;23;20029;-61
2023/05/27 08:26:36;;;;;;;11.50;4.00;;;;;;;15.56;50.14;102601.34;6188721;23;20025;-62
2023/05/27 08:29:06;;;;;;;9.68;3.55;;;;;;;15.58;50.14;102588.44;6190233;23;20029;-62
2023/05/27 08:31:34;;;;;;;12.55;3.67;;;;;;;15.60;50.15;102591.72;6189616;23;20052;-62
2023/05/27 08:34:02;;;;;;;13.18;4.32;;;;;;;15.62;50.15;102578.81;6189619;23;20025;-61
2023/05/27 08:36:31;;;;;;;10.20;3.58;;;;;;;15.64;50.07;102586.72;6188739;23;20083;-65
2023/05/27 08:38:59;;;;;;;11.38;4.57;;;;;;;15.75;49.76;102571.66;6190672;23;20121;-64
2023/05/27 08:41:28;;;;;;;13.07;4.15;;;;;;;15.68;50.17;102566.28;6186763;23;20562;-62
2023/05/27 08:43:56;;;;;;;11.55;4.50;;;;;;;15.67;50.48;102566.50;6189099;23;20032;-62
2023/05/27 08:46:46;;;;;;;16.48;3.97;;;;;;;15.69;50.43;102570.66;6186170;23;20059;-61
2023/05/27 08:49:14;;;;;;;12.07;3.75;;;;;;;15.73;50.31;102565.63;6188455;23;20076;-60
2023/05/27 08:51:42;;;;;;;18.58;5.10;;;;;;;15.75;50.20;102571.66;6186693;23;20032;-61
2023/05/27 08:54:10;;;;;;;13.50;4.75;;;;;;;15.75;50.57;102560.84;6189272;23;20052;-61
2023/05/27 08:56:40;;;;;;;23.33;5.78;;;;;;;15.76;50.56;102554.38;6188090;23;20036;-62
2023/05/27 08:59:08;;;;;;;18.25;5.22;;;;;;;15.80;50.63;102555.59;6187971;23;20075;-61
2023/05/27 09:01:36;;;;;;;17.17;5.72;;;;;;;15.87;50.74;102551.81;6187417;23;20052;-64
2023/05/27 09:04:05;;;;;;;15.20;4.20;;;;;;;15.95;50.77;102556.16;6187415;23;20148;-63
2023/05/27 09:06:33;;;;;;;17.50;4.55;;;;;;;16.01;50.63;102546.31;6189635;23;20117;-59
2023/05/27 09:09:01;;;;;;;15.80;4.55;;;;;;;16.04;50.58;102538.59;6192544;23;20032;-61
2023/05/27 09:11:34;;;;;;;13.68;3.92;;;;;;;16.07;50.78;102535.44;6192403;23;20864;-60
2023/05/27 09:14:02;;;;;;;14.10;4.47;;;;;;;16.10;50.68;102537.72;6194136;23;20032;-60
2023/05/27 09:16:29;;;;;;;11.90;4.50;;;;;;;16.13;50.58;102536.44;6192753;23;20024;-61
2023/05/27 09:18:57;;;;;;;11.35;3.83;;;;;;;16.14;50.65;102530.81;6194947;23;20081;-60
2023/05/27 09:21:27;;;;;;;16.25;4.25;;;;;;;16.16;50.75;102531.44;6193482;23;20094;-64
2023/05/27 09:23:56;;;;;;;12.70;4.50;;;;;;;16.20;50.71;102529.94;6191262;23;20025;-59
2023/05/27 09:26:25;;;;;;;8.68;3.78;;;;;;;16.24;50.75;102524.91;6160212;23;20057;-60
2023/05/27 09:28:53;;;;;;;11.40;3.90;;;;;;;16.25;50.62;102527.41;6163195;23;20033;-60
2023/05/27 09:31:22;;;;;;;9.93;3.42;;;;;;;16.27;50.57;102513.63;6162093;23;20029;-62
2023/05/27 09:33:51;;;;;;;11.80;4.32;;;;;;;16.27;50.83;102517.16;6162669;23;20026;-61
2023/05/27 09:36:21;;;;;;;14.93;3.63;;;;;;;16.29;50.74;102514.22;6162759;23;20029;-61
2023/05/27 09:38:52;;;;;;;11.98;4.63;;;;;;;16.33;50.94;102512.75;6165033;23;21897;-60
2023/05/27 09:41:24;;;;;;;11.10;3.88;;;;;;;16.38;51.03;102507.50;6162029;23;20037;-60
2023/05/27 09:43:55;;;;;;;10.85;3.97;;;;;;;16.42;50.90;102519.56;6162792;23;20347;-60
2023/05/27 09:46:25;;;;;;;11.32;3.90;;;;;;;16.46;50.82;102506.38;6161863;23;20036;-60
2023/05/27 09:48:55;;;;;;;9.55;3.92;;;;;;;16.48;50.70;102512.44;6163383;23;20025;-60
2023/05/27 09:51:24;;;;;;;11.23;3.60;;;;;;;16.51;50.74;102506.56;6162269;23;20029;-60
2023/05/27 09:53:55;;;;;;;13.38;3.97;;;;;;;16.53;50.88;102494.44;6163795;23;20053;-61
2023/05/27 09:56:26;;;;;;;16.67;4.80;;;;;;;16.58;50.95;102499.19;6162076;23;20037;-61
2023/05/27 09:58:56;;;;;;;14.38;4.13;;;;;;;16.62;50.96;102502.31;6164298;23;20072;-61
2023/05/27 10:01:28;;;;;;;8.05;3.22;;;;;;;16.63;50.88;102490.38;6163889;23;20119;-60
2023/05/27 10:03:56;;;;;;;12.82;4.25;;;;;;;16.65;50.81;102493.75;6165509;23;20080;-60
2023/05/27 10:06:27;;;;;;;20.08;4.20;;;;;;;16.67;50.81;102491.63;6164151;23;20028;-60
2023/05/27 10:08:56;;;;;;;11.40;3.95;;;;;;;16.72;51.05;102487.19;6164639;23;20053;-61
2023/05/27 10:11:26;;;;;;;11.23;3.78;;;;;;;16.76;51.01;102476.72;6163237;23;20049;-61
2023/05/27 10:13:53;;;;;;;13.65;3.72;;;;;;;16.81;50.84;102482.31;6162497;23;20025;-61
2023/05/27 10:16:22;;;;;;;11.27;4.15;;;;;;;16.87;51.14;102478.72;6162052;23;20095;-61
2023/05/27 10:18:54;;;;;;;15.10;3.53;;;;;;;16.84;51.09;102468.28;6162250;23;20029;-61
2023/05/27 10:21:24;;;;;;;12.13;4.25;;;;;;;16.97;51.11;102468.16;6162370;23;20023;-62
2023/05/27 10:23:59;;;;;;;11.20;4.13;;;;;;;16.99;50.25;102467.94;6162984;23;20025;-62
2023/05/27 10:26:33;;;;;;;13.68;4.25;;;;;;;17.02;50.62;102464.78;6189450;23;20025;-61
2023/05/27 10:29:09;;;;;;;11.18;3.40;;;;;;;17.05;50.69;102461.59;6193829;23;20031;-61
2023/05/27 10:31:37;;;;;;;11.90;3.50;;;;;;;17.10;50.93;102462.59;6193340;23;20048;-63
2023/05/27 10:34:06;;;;;;;10.02;3.63;;;;;;;17.16;50.67;102452.69;6192858;23;20048;-61
2023/05/27 10:36:36;;;;;;;9.32;3.17;;;;;;;17.18;49.88;102448.69;6193135;23;20027;-61
2023/05/27 10:39:07;;;;;;;14.95;3.60;;;;;;;17.21;49.75;102458.28;6190521;23;20025;-60
2023/05/27 10:41:41;;;;;;;17.48;4.90;;;;;;;17.22;49.88;102455.34;6186753;23;20072;-59
2023/05/27 10:44:10;;;;;;;9.63;3.65;;;;;;;17.26;49.92;102453.00;6191506;23;20025;-59
2023/05/27 10:46:42;;;;;;;14.43;4.38;;;;;;;17.34;50.70;102441.78;6190246;23;20029;-59
2023/05/27 10:49:11;;;;;;;13.07;4.05;;;;;;;17.41;50.36;102447.16;6191542;23;20021;-60
2023/05/27 10:51:39;;;;;;;14.38;3.67;;;;;;;17.52;50.39;102435.50;6191017;23;20040;-60
2023/05/27 10:54:08;;;;;;;12.40;4.45;;;;;;;17.62;50.43;102430.34;6190871;23;20056;-60
2023/05/27 10:56:50;;;;;;;16.83;4.05;;;;;;;17.69;50.17;102435.72;6191111;23;20033;-64
2023/05/27 10:59:22;;;;;;;10.13;3.63;;;;;;;17.70;49.39;102423.78;6191541;23;20052;-60
2023/05/27 11:01:53;;;;;;;9.73;3.35;;;;;;;17.71;49.30;102415.41;6193210;23;20025;-62
2023/05/27 11:04:22;;;;;;;11.35;3.72;;;;;;;17.73;49.08;102420.59;6191578;23;20075;-61
2023/05/27 11:07:00;;;;;;;11.48;3.63;;;;;;;17.74;49.31;102414.94;6193822;23;20032;-60
2023/05/27 11:09:43;;;;;;;17.45;4.47;;;;;;;17.81;49.72;102409.41;6188619;23;20025;-62
2023/05/27 11:12:16;;;;;;;13.55;4.00;;;;;;;17.88;49.27;102405.53;6185761;23;20027;-66
2023/05/27 11:14:43;;;;;;;12.52;3.75;;;;;;;17.91;48.69;102390.63;6185553;23;20111;-66
2023/05/27 11:17:11;;;;;;;12.18;4.18;;;;;;;17.94;48.71;102397.50;6185239;23;20025;-64
2023/05/27 11:19:40;;;;;;;10.82;3.65;;;;;;;17.99;48.32;102394.91;6185947;23;20033;-63
2023/05/27 11:22:09;;;;;;;11.32;3.70;;;;;;;18.00;49.08;102385.69;6186147;23;20021;-61
2023/05/27 11:24:38;;;;;;;13.68;4.68;;;;;;;18.06;48.84;102388.28;6187260;23;20029;-59